createdAt,value
2023-05-24T00:00:25.306Z,44.86
2023-05-24T00:01:25.278Z,44.80
2023-05-24T00:02:25.391Z,44.83
2023-05-24T00:03:25.431Z,44.80
2023-05-24T00:04:25.656Z,44.80
2023-05-24T00:05:25.264Z,44.80
2023-05-24T00:06:25.241Z,44.77
2023-05-24T00:07:25.239Z,44.78
2023-05-24T00:08:25.234Z,44.71
2023-05-24T00:09:25.231Z,44.67
2023-05-24T00:10:25.216Z,44.68
2023-05-24T00:11:25.219Z,44.63
2023-05-24T00:12:25.224Z,44.64
2023-05-24T00:13:25.228Z,44.63
2023-05-24T00:14:25.190Z,44.56
2023-05-24T00:15:25.181Z,44.52
2023-05-24T00:16:25.205Z,44.56
2023-05-24T00:17:25.182Z,44.53
2023-05-24T00:18:25.161Z,44.47
2023-05-24T00:19:25.157Z,44.46
2023-05-24T00:20:25.247Z,44.46
2023-05-24T00:21:25.135Z,44.39
2023-05-24T00:22:25.203Z,44.38
2023-05-24T00:23:25.122Z,44.40
2023-05-24T00:24:25.121Z,44.36
2023-05-24T00:25:25.113Z,44.35
2023-05-24T00:26:25.102Z,44.32
2023-05-24T00:27:25.101Z,44.29
2023-05-24T00:28:25.082Z,44.26
2023-05-24T00:29:25.103Z,44.23
2023-05-24T00:30:25.070Z,44.25
2023-05-24T00:31:25.115Z,44.21
2023-05-24T00:32:25.100Z,44.25
2023-05-24T00:33:25.053Z,44.20
2023-05-24T00:34:25.059Z,44.20
2023-05-24T00:35:25.046Z,44.18
2023-05-24T00:36:25.032Z,44.14
2023-05-24T00:37:25.021Z,44.16
2023-05-24T00:38:25.019Z,44.14
2023-05-24T00:39:25.011Z,44.13
2023-05-24T00:40:25.022Z,44.11
2023-05-24T00:41:25.032Z,44.09
2023-05-24T00:42:25.063Z,44.14
2023-05-24T00:43:25.082Z,44.13
2023-05-24T00:44:25.132Z,44.07
2023-05-24T00:45:25.106Z,44.06
2023-05-24T00:46:25.114Z,44.04
2023-05-24T00:47:25.096Z,44.04
2023-05-24T00:48:25.096Z,44.04
2023-05-24T00:49:25.118Z,44.04
2023-05-24T00:50:25.109Z,44.00
2023-05-24T00:51:25.120Z,44.05
2023-05-24T00:52:25.126Z,43.98
2023-05-24T00:53:25.129Z,44.02
2023-05-24T00:54:25.133Z,43.98
2023-05-24T00:55:25.147Z,44.00
2023-05-24T00:56:25.164Z,43.95
2023-05-24T00:57:25.157Z,43.99
2023-05-24T00:58:25.161Z,43.96
2023-05-24T00:59:34.077Z,43.97
2023-05-24T01:00:25.161Z,43.99
2023-05-24T01:01:25.195Z,43.97
2023-05-24T01:02:25.209Z,43.97
2023-05-24T01:03:25.247Z,43.95
2023-05-24T01:04:25.133Z,43.94
2023-05-24T01:05:25.137Z,43.91
2023-05-24T01:06:25.127Z,43.89
2023-05-24T01:07:25.121Z,43.92
2023-05-24T01:08:25.108Z,43.93
2023-05-24T01:09:25.151Z,43.91
2023-05-24T01:10:25.106Z,43.86
2023-05-24T01:11:25.093Z,43.88
2023-05-24T01:12:25.089Z,43.88
2023-05-24T01:13:25.078Z,43.88
2023-05-24T01:14:25.071Z,43.90
2023-05-24T01:15:25.061Z,43.90
2023-05-24T01:16:25.111Z,43.85
2023-05-24T01:17:25.117Z,43.84
2023-05-24T01:18:25.047Z,43.87
2023-05-24T01:19:25.032Z,43.86
2023-05-24T01:20:25.064Z,43.87
2023-05-24T01:21:25.023Z,43.87
2023-05-24T01:22:25.011Z,43.88
2023-05-24T01:23:25.006Z,43.86
2023-05-24T01:24:25.004Z,43.83
2023-05-24T01:25:24.996Z,43.84
2023-05-24T01:26:24.986Z,43.86
2023-05-24T01:27:24.977Z,43.80
2023-05-24T01:28:24.988Z,43.84
2023-05-24T01:29:24.958Z,43.83
2023-05-24T01:30:24.952Z,43.77
2023-05-24T01:31:24.976Z,43.80
2023-05-24T01:32:25.080Z,43.79
2023-05-24T01:33:24.964Z,43.81
2023-05-24T01:34:24.921Z,43.78
2023-05-24T01:35:24.910Z,43.78
2023-05-24T01:36:24.911Z,43.75
2023-05-24T01:37:24.900Z,43.77
2023-05-24T01:38:24.908Z,43.76
2023-05-24T01:39:24.889Z,43.74
2023-05-24T01:40:24.883Z,43.77
2023-05-24T01:41:24.866Z,43.77
2023-05-24T01:42:24.860Z,43.77
2023-05-24T01:43:24.857Z,43.75
2023-05-24T01:44:24.847Z,43.77
2023-05-24T01:45:24.852Z,43.76
2023-05-24T01:46:24.850Z,43.75
2023-05-24T01:47:24.831Z,43.75
2023-05-24T01:48:24.819Z,43.70
2023-05-24T01:49:24.839Z,43.70
2023-05-24T01:50:25.838Z,43.76
2023-05-24T01:51:24.796Z,43.72
2023-05-24T01:52:24.842Z,43.70
2023-05-24T01:53:24.792Z,43.71
2023-05-24T01:54:24.796Z,43.69
2023-05-24T01:55:24.773Z,43.71
2023-05-24T01:56:24.786Z,43.69
2023-05-24T01:57:24.752Z,43.69
2023-05-24T01:58:24.756Z,43.71
2023-05-24T01:59:24.738Z,43.67
2023-05-24T02:00:24.734Z,43.68
2023-05-24T02:01:24.780Z,43.68
2023-05-24T02:02:24.932Z,43.69
2023-05-24T02:03:24.760Z,43.70
2023-05-24T02:04:24.700Z,43.65
2023-05-24T02:05:24.727Z,43.68
2023-05-24T02:06:24.696Z,43.69
2023-05-24T02:07:24.694Z,43.64
2023-05-24T02:08:24.710Z,43.63
2023-05-24T02:09:24.736Z,43.63
2023-05-24T02:10:24.732Z,43.64
2023-05-24T02:11:24.744Z,43.63
2023-05-24T02:12:24.752Z,43.66
2023-05-24T02:13:24.772Z,43.66
2023-05-24T02:14:24.794Z,43.60
2023-05-24T02:15:24.804Z,43.63
2023-05-24T02:16:24.864Z,43.59
2023-05-24T02:17:24.846Z,43.63
2023-05-24T02:18:24.830Z,43.59
2023-05-24T02:19:24.851Z,43.59
2023-05-24T02:20:24.888Z,43.59
2023-05-24T02:21:24.916Z,43.58
2023-05-24T02:22:24.893Z,43.60
2023-05-24T02:23:24.904Z,43.61
2023-05-24T02:24:24.941Z,43.59
2023-05-24T02:25:24.929Z,43.55
2023-05-24T02:26:24.948Z,43.60
2023-05-24T02:27:24.971Z,43.58
2023-05-24T02:28:24.983Z,43.55
2023-05-24T02:29:25.008Z,43.54
2023-05-24T02:30:25.005Z,43.54
2023-05-24T02:31:25.097Z,43.52
2023-05-24T02:32:25.017Z,43.54
2023-05-24T02:33:25.028Z,43.48
2023-05-24T02:34:25.056Z,43.47
2023-05-24T02:35:25.055Z,43.53
2023-05-24T02:36:25.068Z,43.54
2023-05-24T02:37:25.108Z,43.52
2023-05-24T02:38:25.108Z,43.50
2023-05-24T02:39:25.160Z,43.49
2023-05-24T02:40:25.128Z,43.50
2023-05-24T02:41:25.135Z,43.54
2023-05-24T02:42:25.148Z,43.48
2023-05-24T02:43:25.166Z,43.51
2023-05-24T02:44:25.188Z,43.50
2023-05-24T02:45:25.204Z,43.48
2023-05-24T02:46:25.255Z,43.47
2023-05-24T02:47:25.282Z,43.49
2023-05-24T02:48:25.216Z,43.48
2023-05-24T02:49:25.276Z,43.48
2023-05-24T02:50:25.244Z,43.45
2023-05-24T02:51:25.246Z,43.46
2023-05-24T02:52:25.269Z,43.46
2023-05-24T02:53:25.300Z,43.47
2023-05-24T02:54:25.289Z,43.47
2023-05-24T02:55:25.304Z,43.48
2023-05-24T02:56:25.315Z,43.43
2023-05-24T02:57:25.320Z,43.43
2023-05-24T02:58:25.335Z,43.44
2023-05-24T02:59:25.343Z,43.40
2023-05-24T03:00:25.365Z,43.41
2023-05-24T03:01:25.363Z,43.44
2023-05-24T03:02:25.419Z,43.44
2023-05-24T03:03:25.492Z,43.44
2023-05-24T03:04:25.404Z,43.46
2023-05-24T03:05:25.404Z,43.41
2023-05-24T03:06:25.425Z,43.42
2023-05-24T03:07:25.430Z,43.40
2023-05-24T03:08:25.439Z,43.42
2023-05-24T03:09:25.476Z,43.41
2023-05-24T03:10:25.451Z,43.42
2023-05-24T03:11:25.463Z,43.41
2023-05-24T03:12:25.469Z,43.43
2023-05-24T03:13:25.487Z,43.40
2023-05-24T03:14:25.503Z,43.33
2023-05-24T03:15:25.515Z,43.41
2023-05-24T03:16:25.551Z,43.37
2023-05-24T03:17:25.528Z,43.34
2023-05-24T03:18:25.545Z,43.35
2023-05-24T03:19:25.568Z,43.35
2023-05-24T03:20:25.595Z,43.35
2023-05-24T03:21:25.636Z,43.34
2023-05-24T03:22:25.603Z,43.33
2023-05-24T03:23:25.610Z,43.34
2023-05-24T03:24:25.625Z,43.33
2023-05-24T03:25:25.658Z,43.31
2023-05-24T03:26:25.664Z,43.31
2023-05-24T03:27:25.671Z,43.30
2023-05-24T03:28:25.673Z,43.35
2023-05-24T03:29:25.691Z,43.29
2023-05-24T03:30:25.700Z,43.30
2023-05-24T03:31:25.728Z,43.29
2023-05-24T03:32:25.741Z,43.29
2023-05-24T03:33:25.734Z,43.26
2023-05-24T03:34:25.757Z,43.28
2023-05-24T03:35:25.762Z,43.26
2023-05-24T03:36:25.776Z,43.24
2023-05-24T03:37:25.829Z,43.28
2023-05-24T03:38:25.803Z,43.28
2023-05-24T03:39:25.822Z,43.28
2023-05-24T03:40:25.860Z,43.25
2023-05-24T03:41:25.871Z,43.25
2023-05-24T03:42:25.864Z,43.30
2023-05-24T03:43:25.875Z,43.24
2023-05-24T03:44:25.887Z,43.29
2023-05-24T03:45:37.667Z,43.25
2023-05-24T03:46:25.937Z,43.28
2023-05-24T03:47:25.910Z,43.23
2023-05-24T03:48:25.876Z,43.24
2023-05-24T03:49:25.862Z,43.26
2023-05-24T03:50:25.856Z,43.24
2023-05-24T03:51:25.853Z,43.26
2023-05-24T03:52:25.852Z,43.20
2023-05-24T03:53:25.840Z,43.20
2023-05-24T03:54:25.825Z,43.20
2023-05-24T03:55:25.823Z,43.23
2023-05-24T03:56:25.816Z,43.24
2023-05-24T03:57:25.836Z,43.25
2023-05-24T03:58:25.798Z,43.21
2023-05-24T03:59:25.810Z,43.24
2023-05-24T04:00:25.802Z,43.19
2023-05-24T04:01:33.268Z,43.19
2023-05-24T04:02:25.866Z,43.25
2023-05-24T04:03:25.818Z,43.21
2023-05-24T04:04:25.816Z,43.19
2023-05-24T04:05:25.740Z,43.19
2023-05-24T04:06:25.744Z,43.23
2023-05-24T04:07:25.732Z,43.19
2023-05-24T04:08:25.726Z,43.15
2023-05-24T04:09:25.722Z,43.16
2023-05-24T04:10:25.703Z,43.16
2023-05-24T04:11:25.694Z,43.17
2023-05-24T04:12:25.706Z,43.16
2023-05-24T04:13:25.717Z,43.17
2023-05-24T04:14:25.678Z,43.15
2023-05-24T04:15:25.664Z,43.11
2023-05-24T04:16:25.717Z,43.16
2023-05-24T04:17:25.904Z,43.14
2023-05-24T04:18:25.783Z,43.16
2023-05-24T04:19:25.643Z,43.12
2023-05-24T04:20:25.886Z,43.09
2023-05-24T04:21:25.625Z,43.11
2023-05-24T04:22:25.909Z,43.09
2023-05-24T04:23:25.609Z,43.13
2023-05-24T04:24:25.622Z,43.12
2023-05-24T04:25:25.593Z,43.11
2023-05-24T04:26:25.578Z,43.16
2023-05-24T04:27:25.576Z,43.06
2023-05-24T04:28:25.579Z,43.11
2023-05-24T04:29:25.583Z,43.11
2023-05-24T04:30:25.553Z,43.07
2023-05-24T04:31:25.596Z,43.09
2023-05-24T04:32:25.570Z,43.12
2023-05-24T04:33:25.573Z,43.09
2023-05-24T04:34:25.586Z,43.06
2023-05-24T04:35:25.535Z,43.10
2023-05-24T04:36:25.518Z,43.10
2023-05-24T04:37:25.518Z,43.06
2023-05-24T04:38:25.507Z,43.05
2023-05-24T04:39:25.518Z,43.09
2023-05-24T04:40:25.493Z,43.06
2023-05-24T04:41:25.492Z,43.05
2023-05-24T04:42:25.497Z,43.02
2023-05-24T04:43:25.490Z,43.01
2023-05-24T04:44:25.474Z,43.02
2023-05-24T04:45:25.496Z,43.04
2023-05-24T04:46:25.487Z,43.02
2023-05-24T04:47:25.563Z,43.03
2023-05-24T04:48:25.439Z,43.04
2023-05-24T04:49:25.451Z,43.06
2023-05-24T04:50:25.425Z,43.04
2023-05-24T04:51:25.416Z,43.05
2023-05-24T04:52:25.408Z,43.08
2023-05-24T04:53:25.402Z,43.01
2023-05-24T04:54:25.401Z,43.01
2023-05-24T04:55:25.404Z,42.98
2023-05-24T04:56:25.384Z,43.00
2023-05-24T04:57:25.378Z,43.00
2023-05-24T04:58:25.372Z,42.99
2023-05-24T04:59:25.397Z,43.00
2023-05-24T05:00:25.372Z,42.98
2023-05-24T05:01:25.454Z,42.99
2023-05-24T05:02:25.417Z,43.00
2023-05-24T05:03:25.545Z,42.96
2023-05-24T05:04:25.445Z,42.98
2023-05-24T05:05:25.458Z,43.00
2023-05-24T05:06:25.482Z,42.96
2023-05-24T05:07:25.488Z,42.95
2023-05-24T05:08:25.498Z,42.96
2023-05-24T05:09:25.514Z,42.94
2023-05-24T05:10:25.572Z,42.95
2023-05-24T05:11:25.545Z,42.96
2023-05-24T05:12:25.578Z,42.94
2023-05-24T05:13:25.574Z,42.91
2023-05-24T05:14:25.590Z,42.95
2023-05-24T05:15:25.635Z,42.91
2023-05-24T05:16:25.686Z,42.91
2023-05-24T05:17:25.703Z,42.98
2023-05-24T05:18:25.674Z,42.93
2023-05-24T05:19:25.702Z,42.91
2023-05-24T05:20:26.206Z,43.02
2023-05-24T05:21:25.730Z,43.01
2023-05-24T05:22:25.748Z,42.98
2023-05-24T05:23:25.777Z,42.93
2023-05-24T05:24:26.134Z,42.92
2023-05-24T05:25:25.814Z,42.87
2023-05-24T05:26:25.974Z,42.87
2023-05-24T05:27:25.866Z,42.90
2023-05-24T05:28:25.829Z,42.87
2023-05-24T05:29:26.168Z,42.87
2023-05-24T05:30:25.923Z,42.86
2023-05-24T05:31:26.124Z,42.87
2023-05-24T05:32:26.148Z,42.86
2023-05-24T05:33:26.018Z,42.88
2023-05-24T05:34:26.417Z,42.85
2023-05-24T05:35:25.925Z,42.83
2023-05-24T05:36:26.136Z,42.84
2023-05-24T05:37:25.957Z,42.84
2023-05-24T05:38:25.968Z,42.88
2023-05-24T05:39:26.011Z,42.87
2023-05-24T05:40:26.014Z,42.80
2023-05-24T05:41:26.182Z,42.89
2023-05-24T05:42:26.003Z,43.10
2023-05-24T05:43:26.019Z,43.03
2023-05-24T05:44:26.184Z,43.00
2023-05-24T05:45:26.019Z,42.98
2023-05-24T05:46:26.182Z,42.93
2023-05-24T05:47:26.262Z,42.96
2023-05-24T05:48:29.248Z,42.88
2023-05-24T05:49:26.013Z,42.89
2023-05-24T05:50:26.027Z,42.88
2023-05-24T05:51:26.140Z,42.83
2023-05-24T05:52:26.037Z,42.82
2023-05-24T05:53:27.008Z,42.87
2023-05-24T05:55:34.418Z,42.87
2023-05-24T05:56:26.148Z,43.01
2023-05-24T05:57:25.965Z,42.98
2023-05-24T05:58:57.770Z,43.18
2023-05-24T05:59:34.406Z,43.17
2023-05-24T06:00:25.939Z,43.36
2023-05-24T06:01:29.359Z,43.48
2023-05-24T06:06:48.313Z,44.10
2023-05-24T06:07:45.604Z,44.11
2023-05-24T06:08:45.071Z,44.14
2023-05-24T06:09:45.077Z,44.22
2023-05-24T06:10:45.189Z,44.25
2023-05-24T06:11:45.124Z,44.30
2023-05-24T06:12:45.106Z,44.37
2023-05-24T06:13:45.045Z,44.44
2023-05-24T06:14:45.136Z,44.48
2023-05-24T06:15:45.082Z,44.52
2023-05-24T06:16:45.075Z,44.54
2023-05-24T06:17:45.043Z,44.60
2023-05-24T06:18:57.255Z,44.66
2023-05-24T06:19:48.225Z,44.73
2023-05-24T06:20:45.455Z,44.82
2023-05-24T06:21:58.972Z,44.94
2023-05-24T06:22:59.490Z,45.00
2023-05-24T06:25:10.497Z,45.19
2023-05-24T06:26:11.471Z,44.84
2023-05-24T06:27:11.462Z,43.88
2023-05-24T06:28:11.452Z,43.31
2023-05-24T06:29:11.670Z,42.90
2023-05-24T06:30:11.533Z,42.68
2023-05-24T06:31:11.484Z,42.45
2023-05-24T06:32:11.414Z,42.57
2023-05-24T06:33:11.424Z,42.46
2023-05-24T06:34:11.430Z,42.27
2023-05-24T06:35:11.423Z,42.26
2023-05-24T06:36:11.419Z,42.30
2023-05-24T06:37:11.415Z,42.27
2023-05-24T06:38:11.387Z,42.19
2023-05-24T06:39:11.678Z,42.28
2023-05-24T06:40:11.383Z,42.20
2023-05-24T06:41:11.663Z,42.15
2023-05-24T06:42:11.380Z,42.25
2023-05-24T06:43:11.346Z,42.33
2023-05-24T06:44:11.349Z,42.14
2023-05-24T06:45:11.347Z,42.08
2023-05-24T06:46:12.663Z,42.23
2023-05-24T06:47:11.348Z,42.11
2023-05-24T06:48:12.421Z,42.25
2023-05-24T06:49:18.733Z,42.27
2023-05-24T06:50:14.505Z,42.34
2023-05-24T06:51:11.701Z,42.45
2023-05-24T06:52:11.675Z,42.51
2023-05-24T06:53:11.351Z,42.60
2023-05-24T06:54:11.287Z,42.65
2023-05-24T06:55:12.270Z,42.72
2023-05-24T06:56:11.686Z,42.74
2023-05-24T06:57:14.870Z,42.81
2023-05-24T06:58:14.525Z,42.81
2023-05-24T06:59:11.247Z,42.86
2023-05-24T07:00:11.253Z,42.84
2023-05-24T07:01:11.702Z,42.86
2023-05-24T07:02:11.246Z,42.84
2023-05-24T07:03:11.264Z,42.82
2023-05-24T07:04:11.257Z,42.83
2023-05-24T07:05:11.209Z,42.79
2023-05-24T07:06:11.688Z,42.78
2023-05-24T07:07:11.672Z,42.75
2023-05-24T07:08:11.252Z,42.78
2023-05-24T07:09:11.207Z,42.78
2023-05-24T07:10:11.162Z,42.78
2023-05-24T07:11:11.217Z,42.74
2023-05-24T07:12:11.172Z,42.70
2023-05-24T07:13:12.176Z,42.74
2023-05-24T07:14:11.127Z,42.70
2023-05-24T07:15:11.129Z,42.72
2023-05-24T07:16:11.138Z,42.74
2023-05-24T07:17:11.393Z,42.75
2023-05-24T07:18:11.108Z,42.70
2023-05-24T07:19:11.095Z,42.69
2023-05-24T07:20:11.236Z,42.72
2023-05-24T07:21:11.082Z,42.72
2023-05-24T07:22:11.200Z,42.68
2023-05-24T07:23:12.102Z,42.69
2023-05-24T07:24:11.079Z,42.70
2023-05-24T07:25:11.110Z,42.69
2023-05-24T07:26:11.077Z,42.64
2023-05-24T07:27:11.180Z,42.69
2023-05-24T07:28:11.052Z,42.69
2023-05-24T07:29:11.035Z,42.68
2023-05-24T07:30:23.650Z,42.72
2023-05-24T07:31:11.187Z,42.67
2023-05-24T07:32:11.077Z,42.69
2023-05-24T07:33:18.478Z,42.66
2023-05-24T07:34:14.378Z,42.67
2023-05-24T07:35:11.010Z,42.68
2023-05-24T07:36:12.008Z,42.67
2023-05-24T07:37:11.437Z,42.69
2023-05-24T07:39:26.772Z,42.86
2023-05-24T07:40:14.215Z,42.89
2023-05-24T07:41:12.449Z,42.97
2023-05-24T07:42:18.813Z,42.94
2023-05-24T07:43:27.051Z,43.04
2023-05-24T07:44:14.246Z,43.01
2023-05-24T07:45:11.077Z,43.15
2023-05-24T07:46:12.031Z,43.08
2023-05-24T07:47:11.359Z,43.26
2023-05-24T07:49:12.003Z,43.35
2023-05-24T07:50:18.596Z,43.35
2023-05-24T07:51:10.975Z,43.55
2023-05-24T07:52:10.952Z,43.42
2023-05-24T07:53:10.944Z,43.46
2023-05-24T07:54:10.946Z,43.37
2023-05-24T07:57:18.392Z,43.30
2023-05-24T07:58:11.322Z,43.23
2023-05-24T07:59:11.902Z,43.23
2023-05-24T08:00:11.299Z,43.22
2023-05-24T08:02:10.899Z,43.25
2023-05-24T08:03:10.959Z,43.17
2023-05-24T08:04:14.138Z,43.16
2023-05-24T08:05:10.881Z,43.10
2023-05-24T08:06:11.422Z,43.17
2023-05-24T08:07:14.034Z,43.17
2023-05-24T08:08:10.861Z,43.19
2023-05-24T08:09:12.078Z,43.19
2023-05-24T08:10:10.829Z,43.23
2023-05-24T08:11:10.860Z,43.23
2023-05-24T08:12:10.798Z,43.26
2023-05-24T08:13:10.995Z,43.25
2023-05-24T08:14:10.938Z,43.25
2023-05-24T08:15:10.854Z,43.31
2023-05-24T08:16:10.892Z,43.28
2023-05-24T08:17:10.886Z,43.28
2023-05-24T08:18:10.928Z,43.26
2023-05-24T08:19:10.920Z,43.27
2023-05-24T08:20:10.931Z,43.28
2023-05-24T08:21:11.225Z,43.27
2023-05-24T08:22:10.877Z,43.30
2023-05-24T08:23:10.878Z,43.29
2023-05-24T08:24:10.880Z,43.28
2023-05-24T08:25:10.869Z,43.27
2023-05-24T08:26:11.219Z,43.28
2023-05-24T08:27:10.893Z,43.30
2023-05-24T08:28:10.954Z,43.31
2023-05-24T08:29:11.014Z,43.30
2023-05-24T08:30:14.080Z,43.29
2023-05-24T08:31:11.227Z,43.31
2023-05-24T08:32:11.009Z,43.34
2023-05-24T08:33:10.905Z,43.32
2023-05-24T08:34:10.870Z,43.28
2023-05-24T08:35:20.774Z,43.28
2023-05-24T08:36:11.216Z,43.27
2023-05-24T08:37:10.831Z,43.31
2023-05-24T08:38:10.840Z,43.29
2023-05-24T08:39:11.653Z,43.29
2023-05-24T08:40:11.217Z,43.28
2023-05-24T08:42:10.924Z,43.28
2023-05-24T08:43:09.828Z,43.25
2023-05-24T08:44:14.151Z,43.29
2023-05-24T08:45:11.418Z,43.28
2023-05-24T08:46:10.822Z,43.26
2023-05-24T08:47:26.420Z,43.26
2023-05-24T08:48:10.907Z,43.24
2023-05-24T08:49:10.759Z,43.22
2023-05-24T08:50:11.221Z,43.23
2023-05-24T08:51:10.745Z,43.26
2023-05-24T08:52:10.771Z,43.27
2023-05-24T08:53:10.732Z,43.22
2023-05-24T08:54:10.730Z,43.25
2023-05-24T08:55:10.714Z,43.22
2023-05-24T08:56:11.216Z,43.24
2023-05-24T08:57:10.720Z,43.22
2023-05-24T08:58:10.725Z,43.22
2023-05-24T08:59:10.714Z,43.23
2023-05-24T09:00:10.918Z,43.15
2023-05-24T09:01:10.848Z,43.18
2023-05-24T09:02:10.790Z,43.20
2023-05-24T09:03:10.885Z,43.16
2023-05-24T09:04:10.774Z,43.20
2023-05-24T09:05:10.646Z,43.16
2023-05-24T09:06:10.655Z,43.12
2023-05-24T09:07:10.641Z,43.11
2023-05-24T09:08:18.166Z,43.13
2023-05-24T09:09:10.627Z,43.12
2023-05-24T09:10:14.017Z,43.10
2023-05-24T09:11:10.646Z,43.11
2023-05-24T09:12:16.748Z,43.10
2023-05-24T09:13:10.607Z,43.11
2023-05-24T09:14:10.720Z,43.07
2023-05-24T09:15:10.593Z,43.15
2023-05-24T09:16:11.379Z,43.12
2023-05-24T09:17:10.580Z,43.07
2023-05-24T09:18:10.611Z,43.11
2023-05-24T09:19:10.561Z,43.07
2023-05-24T09:20:11.040Z,43.06
2023-05-24T09:21:10.972Z,43.06
2023-05-24T09:22:10.787Z,43.03
2023-05-24T09:23:10.542Z,43.05
2023-05-24T09:24:10.569Z,43.16
2023-05-24T09:25:10.548Z,42.72
2023-05-24T09:26:10.573Z,42.35
2023-05-24T09:27:10.512Z,42.58
2023-05-24T09:28:10.522Z,42.61
2023-05-24T09:29:10.495Z,42.56
2023-05-24T09:30:13.714Z,42.19
2023-05-24T09:31:10.931Z,42.59
2023-05-24T09:32:10.776Z,42.73
2023-05-24T09:33:10.497Z,42.88
2023-05-24T09:34:10.479Z,42.59
2023-05-24T09:35:11.011Z,43.12
2023-05-24T09:36:10.756Z,43.14
2023-05-24T09:37:10.466Z,43.33
2023-05-24T09:38:10.431Z,43.60
2023-05-24T09:39:10.494Z,43.70
2023-05-24T09:40:10.727Z,44.14
2023-05-24T09:41:10.747Z,44.30
2023-05-24T09:42:10.408Z,44.11
2023-05-24T09:43:10.440Z,44.31
2023-05-24T09:44:10.388Z,44.40
2023-05-24T09:45:10.385Z,44.58
2023-05-24T09:46:10.781Z,44.68
2023-05-24T09:47:10.481Z,44.93
2023-05-24T09:48:10.431Z,45.08
2023-05-24T09:49:10.734Z,45.20
2023-05-24T09:50:11.357Z,45.33
2023-05-24T09:51:10.777Z,45.46
2023-05-24T09:52:10.449Z,45.53
2023-05-24T09:53:10.321Z,45.67
2023-05-24T09:54:10.320Z,45.80
2023-05-24T09:55:10.330Z,45.78
2023-05-24T09:56:10.297Z,45.83
2023-05-24T09:57:10.727Z,45.93
2023-05-24T09:58:10.281Z,46.06
2023-05-24T09:59:10.311Z,46.13
2023-05-24T10:00:10.308Z,46.14
2023-05-24T10:01:10.809Z,46.21
2023-05-24T10:02:10.421Z,46.36
2023-05-24T10:03:10.570Z,46.38
2023-05-24T10:04:10.834Z,46.47
2023-05-24T10:05:10.764Z,46.43
2023-05-24T10:06:10.611Z,46.63
2023-05-24T10:07:10.655Z,46.69
2023-05-24T10:08:10.697Z,46.68
2023-05-24T10:09:10.740Z,46.83
2023-05-24T10:10:10.780Z,46.96
2023-05-24T10:11:10.814Z,47.00
2023-05-24T10:12:10.855Z,47.09
2023-05-24T10:13:18.650Z,47.19
2023-05-24T10:14:10.898Z,47.11
2023-05-24T10:15:10.871Z,47.40
2023-05-24T10:16:11.145Z,47.47
2023-05-24T10:17:10.999Z,47.48
2023-05-24T10:18:13.830Z,47.62
2023-05-24T10:19:10.859Z,47.62
2023-05-24T10:20:10.989Z,47.72
2023-05-24T10:21:10.863Z,47.65
2023-05-24T10:22:10.836Z,47.78
2023-05-24T10:23:11.249Z,47.76
2023-05-24T10:24:10.826Z,47.84
2023-05-24T10:25:10.883Z,47.93
2023-05-24T10:26:10.832Z,48.00
2023-05-24T10:27:11.249Z,48.12
2023-05-24T10:28:11.265Z,48.18
2023-05-24T10:29:10.776Z,48.25
2023-05-24T10:30:13.702Z,48.37
2023-05-24T10:31:10.813Z,48.37
2023-05-24T10:32:10.760Z,48.54
2023-05-24T10:33:11.266Z,48.41
2023-05-24T10:34:10.743Z,48.54
2023-05-24T10:35:10.735Z,48.64
2023-05-24T10:36:10.836Z,48.64
2023-05-24T10:37:10.725Z,48.65
2023-05-24T10:38:10.749Z,48.68
2023-05-24T10:39:10.713Z,48.68
2023-05-24T10:40:10.728Z,48.82
2023-05-24T10:41:10.718Z,48.77
2023-05-24T10:42:10.694Z,48.95
2023-05-24T10:43:10.682Z,48.95
2023-05-24T10:44:10.690Z,49.04
2023-05-24T10:45:10.664Z,49.06
2023-05-24T10:46:10.795Z,49.07
2023-05-24T10:47:10.777Z,48.98
2023-05-24T10:48:10.761Z,48.98
2023-05-24T10:49:10.652Z,48.95
2023-05-24T10:50:10.629Z,48.97
2023-05-24T10:51:10.630Z,49.00
2023-05-24T10:52:10.818Z,48.94
2023-05-24T10:53:10.624Z,48.93
2023-05-24T10:54:10.611Z,48.93
2023-05-24T10:55:10.664Z,48.96
2023-05-24T10:56:10.587Z,48.95
2023-05-24T10:57:10.593Z,49.10
2023-05-24T10:58:10.584Z,49.04
2023-05-24T10:59:10.560Z,49.10
2023-05-24T11:00:13.607Z,49.15
2023-05-24T11:01:10.561Z,49.24
2023-05-24T11:02:10.872Z,49.23
2023-05-24T11:03:10.663Z,49.31
2023-05-24T11:04:10.538Z,49.33
2023-05-24T11:05:10.603Z,49.29
2023-05-24T11:06:10.532Z,49.31
2023-05-24T11:07:10.556Z,49.35
2023-05-24T11:08:10.559Z,49.40
2023-05-24T11:09:10.513Z,49.38
2023-05-24T11:10:10.564Z,49.39
2023-05-24T11:11:22.335Z,49.42
2023-05-24T11:12:10.479Z,49.50
2023-05-24T11:13:10.474Z,49.51
2023-05-24T11:14:10.494Z,49.83
2023-05-24T11:15:10.455Z,50.06
2023-05-24T11:16:10.569Z,49.69
2023-05-24T11:17:10.428Z,49.40
2023-05-24T11:18:10.480Z,49.29
2023-05-24T11:19:10.421Z,49.22
2023-05-24T11:20:10.533Z,49.16
2023-05-24T11:21:10.426Z,49.11
2023-05-24T11:22:10.432Z,49.00
2023-05-24T11:23:10.396Z,48.97
2023-05-24T11:24:10.422Z,49.03
2023-05-24T11:25:10.387Z,48.96
2023-05-24T11:26:10.384Z,48.86
2023-05-24T11:27:10.369Z,48.89
2023-05-24T11:28:10.396Z,48.84
2023-05-24T11:29:10.361Z,48.74
2023-05-24T11:30:10.386Z,48.62
2023-05-24T11:31:10.389Z,48.54
2023-05-24T11:32:10.521Z,48.61
2023-05-24T11:33:10.387Z,48.66
2023-05-24T11:34:10.322Z,48.66
2023-05-24T11:35:10.773Z,48.73
2023-05-24T11:36:10.315Z,48.74
2023-05-24T11:37:10.779Z,48.79
2023-05-24T11:38:10.308Z,48.79
2023-05-24T11:39:10.293Z,48.77
2023-05-24T11:40:10.352Z,48.79
2023-05-24T11:41:10.271Z,48.79
2023-05-24T11:42:10.268Z,48.78
2023-05-24T11:43:10.260Z,48.81
2023-05-24T11:44:10.251Z,48.99
2023-05-24T11:45:10.251Z,48.86
2023-05-24T11:46:10.285Z,48.85
2023-05-24T11:47:10.240Z,48.75
2023-05-24T11:48:10.351Z,48.56
2023-05-24T11:49:10.266Z,48.50
2023-05-24T11:50:10.455Z,48.28
2023-05-24T11:51:10.362Z,48.30
2023-05-24T11:52:10.408Z,48.28
2023-05-24T11:53:10.457Z,48.40
2023-05-24T11:54:10.945Z,48.45
2023-05-24T11:55:10.553Z,48.50
2023-05-24T11:56:10.663Z,48.49
2023-05-24T11:57:10.781Z,48.48
2023-05-24T11:58:10.693Z,48.48
2023-05-24T11:59:10.743Z,48.49
2023-05-24T12:00:10.793Z,48.54
2023-05-24T12:01:10.903Z,48.46
2023-05-24T12:02:11.033Z,48.94
2023-05-24T12:03:11.184Z,48.93
2023-05-24T12:04:11.392Z,49.06
2023-05-24T12:05:12.032Z,48.93
2023-05-24T12:06:11.102Z,48.84
2023-05-24T12:07:11.288Z,48.80
2023-05-24T12:08:12.616Z,48.95
2023-05-24T12:09:11.793Z,49.06
2023-05-24T12:10:11.402Z,49.10
2023-05-24T12:11:11.454Z,49.27
2023-05-24T12:12:11.826Z,49.26
2023-05-24T12:13:11.548Z,49.39
2023-05-24T12:14:11.587Z,49.50
2023-05-24T12:15:11.631Z,49.66
2023-05-24T12:16:14.933Z,49.90
2023-05-24T12:17:11.658Z,49.89
2023-05-24T12:18:11.663Z,49.98
2023-05-24T12:19:20.153Z,50.09
2023-05-24T12:20:11.700Z,50.11
2023-05-24T12:21:11.660Z,50.19
2023-05-24T12:22:11.628Z,50.24
2023-05-24T12:23:11.615Z,50.50
2023-05-24T12:24:11.604Z,50.55
2023-05-24T12:25:11.599Z,50.63
2023-05-24T12:26:11.598Z,50.66
2023-05-24T12:27:11.792Z,50.76
2023-05-24T12:28:11.642Z,50.88
2023-05-24T12:29:11.578Z,51.09
2023-05-24T12:30:11.580Z,51.15
2023-05-24T12:31:11.609Z,51.24
2023-05-24T12:32:11.546Z,51.37
2023-05-24T12:33:11.559Z,51.45
2023-05-24T12:34:11.809Z,51.58
2023-05-24T12:35:11.554Z,51.58
2023-05-24T12:36:11.591Z,51.67
2023-05-24T12:37:11.518Z,51.82
2023-05-24T12:38:11.508Z,51.82
2023-05-24T12:39:11.510Z,52.11
2023-05-24T12:40:11.505Z,51.82
2023-05-24T12:41:13.427Z,51.87
2023-05-24T12:42:11.487Z,51.80
2023-05-24T12:43:11.479Z,51.76
2023-05-24T12:44:11.539Z,51.57
2023-05-24T12:45:11.465Z,51.54
2023-05-24T12:46:11.481Z,51.71
2023-05-24T12:47:11.507Z,51.79
2023-05-24T12:48:11.461Z,51.76
2023-05-24T12:49:11.431Z,51.89
2023-05-24T12:50:11.423Z,52.02
2023-05-24T12:51:11.438Z,52.11
2023-05-24T12:52:12.385Z,52.13
2023-05-24T12:53:11.398Z,52.20
2023-05-24T12:54:11.408Z,52.15
2023-05-24T12:55:11.393Z,52.16
2023-05-24T12:56:11.388Z,52.53
2023-05-24T12:57:11.396Z,52.53
2023-05-24T12:58:11.382Z,52.36
2023-05-24T12:59:11.359Z,52.54
2023-05-24T13:00:11.936Z,52.73
2023-05-24T13:01:11.363Z,52.76
2023-05-24T13:02:11.339Z,52.68
2023-05-24T13:03:11.360Z,52.78
2023-05-24T13:04:11.348Z,52.91
2023-05-24T13:05:11.394Z,53.13